sensor_id;sensor_type;location;lat;lon;timestamp;pressure;altitude;pressure_sealevel;temperature;humidity
2875;BME280;1445;52.600;13.328;2023-06-14T00:00:09;101134.69;;;15.69;nan
2875;BME280;1445;52.600;13.328;2023-06-14T00:02:35;101143.78;;;15.61;nan
2875;BME280;1445;52.600;13.328;2023-06-14T00:05:01;101142.34;;;15.55;nan
2875;BME280;1445;52.600;13.328;2023-06-14T00:07:40;101133.31;;;15.58;nan
2875;BME280;1445;52.600;13.328;2023-06-14T00:10:10;101140.69;;;15.54;nan
2875;BME280;1445;52.600;13.328;2023-06-14T00:12:36;101137.41;;;15.61;nan
2875;BME280;1445;52.600;13.328;2023-06-14T00:15:02;101139.38;;;15.60;nan
2875;BME280;1445;52.600;13.328;2023-06-14T00:17:27;101129.56;;;15.54;nan
2875;BME280;1445;52.600;13.328;2023-06-14T00:19:57;101130.38;;;15.55;nan
2875;BME280;1445;52.600;13.328;2023-06-14T00:22:23;101137.09;;;15.45;nan
2875;BME280;1445;52.600;13.328;2023-06-14T00:24:51;101138.84;;;15.41;nan
2875;BME280;1445;52.600;13.328;2023-06-14T00:27:17;101134.13;;;15.50;nan
2875;BME280;1445;52.600;13.328;2023-06-14T00:29:43;101137.09;;;15.45;nan
2875;BME280;1445;52.600;13.328;2023-06-14T00:32:08;101136.75;;;15.38;nan
2875;BME280;1445;52.600;13.328;2023-06-14T00:34:34;101140.47;;;15.24;nan
2875;BME280;1445;52.600;13.328;2023-06-14T00:37:00;101143.44;;;15.28;nan
2875;BME280;1445;52.600;13.328;2023-06-14T00:39:25;101133.59;;;15.22;nan
2875;BME280;1445;52.600;13.328;2023-06-14T00:41:50;101143.72;;;15.18;nan
2875;BME280;1445;52.600;13.328;2023-06-14T00:44:16;101145.69;;;15.17;nan
2875;BME280;1445;52.600;13.328;2023-06-14T00:46:42;101152.00;;;15.09;nan
2875;BME280;1445;52.600;13.328;2023-06-14T00:49:09;101150.91;;;15.10;nan
2875;BME280;1445;52.600;13.328;2023-06-14T00:51:36;101149.56;;;15.08;nan
2875;BME280;1445;52.600;13.328;2023-06-14T00:54:02;101151.31;;;14.95;nan
2875;BME280;1445;52.600;13.328;2023-06-14T00:56:28;101147.38;;;14.87;nan
2875;BME280;1445;52.600;13.328;2023-06-14T00:58:56;101151.59;;;14.85;nan
2875;BME280;1445;52.600;13.328;2023-06-14T01:01:21;101149.22;;;14.92;nan
2875;BME280;1445;52.600;13.328;2023-06-14T01:03:47;101148.88;;;14.93;nan
2875;BME280;1445;52.600;13.328;2023-06-14T01:06:23;101149.00;;;14.79;nan
2875;BME280;1445;52.600;13.328;2023-06-14T01:09:09;101144.59;;;14.78;nan
2875;BME280;1445;52.600;13.328;2023-06-14T01:11:49;101139.78;;;14.70;nan
2875;BME280;1445;52.600;13.328;2023-06-14T01:14:16;101149.25;;;14.69;nan
2875;BME280;1445;52.600;13.328;2023-06-14T01:16:43;101150.78;;;14.75;nan
2875;BME280;1445;52.600;13.328;2023-06-14T01:19:11;101151.41;;;14.72;nan
2875;BME280;1445;52.600;13.328;2023-06-14T01:21:38;101153.19;;;14.68;nan
2875;BME280;1445;52.600;13.328;2023-06-14T01:24:08;101153.81;;;14.65;nan
2875;BME280;1445;52.600;13.328;2023-06-14T01:26:34;101148.44;;;14.69;nan
2875;BME280;1445;52.600;13.328;2023-06-14T01:29:01;101153.28;;;14.54;nan
2875;BME280;1445;52.600;13.328;2023-06-14T01:31:26;101146.28;;;14.57;nan
2875;BME280;1445;52.600;13.328;2023-06-14T01:33:52;101148.88;;;14.53;nan
2875;BME280;1445;52.600;13.328;2023-06-14T01:36:19;101148.91;;;14.62;nan
2875;BME280;1445;52.600;13.328;2023-06-14T01:38:46;101139.78;;;14.62;nan
2875;BME280;1445;52.600;13.328;2023-06-14T01:41:14;101141.72;;;14.61;nan
2875;BME280;1445;52.600;13.328;2023-06-14T01:43:41;101138.44;;;14.59;nan
2875;BME280;1445;52.600;13.328;2023-06-14T01:46:08;101135.81;;;14.54;nan
2875;BME280;1445;52.600;13.328;2023-06-14T01:48:34;101145.38;;;14.48;nan
2875;BME280;1445;52.600;13.328;2023-06-14T01:50:59;101149.19;;;14.52;nan
2875;BME280;1445;52.600;13.328;2023-06-14T01:53:25;101149.19;;;14.29;nan
2875;BME280;1445;52.600;13.328;2023-06-14T01:55:50;101152.06;;;14.24;nan
2875;BME280;1445;52.600;13.328;2023-06-14T01:58:19;101164.28;;;14.15;nan
2875;BME280;1445;52.600;13.328;2023-06-14T02:00:44;101167.97;;;14.10;nan
2875;BME280;1445;52.600;13.328;2023-06-14T02:03:11;101162.66;;;14.00;nan
2875;BME280;1445;52.600;13.328;2023-06-14T02:05:37;101166.06;;;13.97;nan
2875;BME280;1445;52.600;13.328;2023-06-14T02:08:04;101153.06;;;13.97;nan
2875;BME280;1445;52.600;13.328;2023-06-14T02:10:30;101166.22;;;13.92;nan
2875;BME280;1445;52.600;13.328;2023-06-14T02:12:55;101178.91;;;13.93;nan
2875;BME280;1445;52.600;13.328;2023-06-14T02:15:20;101177.16;;;13.97;nan
2875;BME280;1445;52.600;13.328;2023-06-14T02:17:47;101181.19;;;13.91;nan
2875;BME280;1445;52.600;13.328;2023-06-14T02:20:13;101189.00;;;13.89;nan
2875;BME280;1445;52.600;13.328;2023-06-14T02:22:39;101185.41;;;13.88;nan
2875;BME280;1445;52.600;13.328;2023-06-14T02:25:05;101175.75;;;13.85;nan
2875;BME280;1445;52.600;13.328;2023-06-14T02:27:31;101175.75;;;13.85;nan
2875;BME280;1445;52.600;13.328;2023-06-14T02:29:57;101172.31;;;13.80;nan
2875;BME280;1445;52.600;13.328;2023-06-14T02:32:22;101171.88;;;13.87;nan
2875;BME280;1445;52.600;13.328;2023-06-14T02:34:48;101170.59;;;13.70;nan
2875;BME280;1445;52.600;13.328;2023-06-14T02:37:17;101173.47;;;13.65;nan
2875;BME280;1445;52.600;13.328;2023-06-14T02:39:43;101182.09;;;13.64;nan
2875;BME280;1445;52.600;13.328;2023-06-14T02:42:08;101182.41;;;13.62;nan
2875;BME280;1445;52.600;13.328;2023-06-14T02:44:34;101187.56;;;13.55;nan
2875;BME280;1445;52.600;13.328;2023-06-14T02:47:00;101182.50;;;13.57;nan
2875;BME280;1445;52.600;13.328;2023-06-14T02:49:26;101180.97;;;13.51;nan
2875;BME280;1445;52.600;13.328;2023-06-14T02:51:51;101186.03;;;13.49;nan
2875;BME280;1445;52.600;13.328;2023-06-14T02:54:17;101185.44;;;13.38;nan
2875;BME280;1445;52.600;13.328;2023-06-14T02:56:43;101188.09;;;13.43;nan
2875;BME280;1445;52.600;13.328;2023-06-14T02:59:08;101183.88;;;13.46;nan
2875;BME280;1445;52.600;13.328;2023-06-14T03:01:34;101178.22;;;13.51;nan
2875;BME280;1445;52.600;13.328;2023-06-14T03:04:01;101178.97;;;13.43;nan
2875;BME280;1445;52.600;13.328;2023-06-14T03:06:28;101173.09;;;13.44;nan
2875;BME280;1445;52.600;13.328;2023-06-14T03:08:55;101178.22;;;13.51;nan
2875;BME280;1445;52.600;13.328;2023-06-14T03:11:22;101168.88;;;13.47;nan
2875;BME280;1445;52.600;13.328;2023-06-14T03:13:47;101169.50;;;13.44;nan
2875;BME280;1445;52.600;13.328;2023-06-14T03:16:12;101173.00;;;13.49;nan
2875;BME280;1445;52.600;13.328;2023-06-14T03:18:39;101171.66;;;13.47;nan
2875;BME280;1445;52.600;13.328;2023-06-14T03:21:04;101175.22;;;13.61;nan
2875;BME280;1445;52.600;13.328;2023-06-14T03:23:30;101181.78;;;13.65;nan
2875;BME280;1445;52.600;13.328;2023-06-14T03:25:56;101172.16;;;13.63;nan
2875;BME280;1445;52.600;13.328;2023-06-14T03:28:22;101180.97;;;13.65;nan
2875;BME280;1445;52.600;13.328;2023-06-14T03:30:47;101176.69;;;13.58;nan
2875;BME280;1445;52.600;13.328;2023-06-14T03:33:12;101190.47;;;13.72;nan
2875;BME280;1445;52.600;13.328;2023-06-14T03:35:38;101184.25;;;13.67;nan
2875;BME280;1445;52.600;13.328;2023-06-14T03:38:04;101189.47;;;13.68;nan
2875;BME280;1445;52.600;13.328;2023-06-14T03:40:29;101187.91;;;13.76;nan
2875;BME280;1445;52.600;13.328;2023-06-14T03:42:55;101192.97;;;13.60;nan
2875;BME280;1445;52.600;13.328;2023-06-14T03:45:21;101196.84;;;13.73;nan
2875;BME280;1445;52.600;13.328;2023-06-14T03:47:46;101196.94;;;13.81;nan
2875;BME280;1445;52.600;13.328;2023-06-14T03:50:12;101194.06;;;13.87;nan
2875;BME280;1445;52.600;13.328;2023-06-14T03:52:37;101199.78;;;13.90;nan
2875;BME280;1445;52.600;13.328;2023-06-14T03:55:04;101201.47;;;14.00;nan
2875;BME280;1445;52.600;13.328;2023-06-14T03:57:29;101197.84;;;14.13;nan
2875;BME280;1445;52.600;13.328;2023-06-14T03:59:55;101198.94;;;14.26;nan
2875;BME280;1445;52.600;13.328;2023-06-14T04:02:20;101202.38;;;14.31;nan
2875;BME280;1445;52.600;13.328;2023-06-14T04:04:46;101205.41;;;14.21;nan
2875;BME280;1445;52.600;13.328;2023-06-14T04:07:15;101206.91;;;14.27;nan
2875;BME280;1445;52.600;13.328;2023-06-14T04:09:44;101211.97;;;14.25;nan
2875;BME280;1445;52.600;13.328;2023-06-14T04:12:10;101202.75;;;14.16;nan
2875;BME280;1445;52.600;13.328;2023-06-14T04:14:37;101211.53;;;14.32;nan
2875;BME280;1445;52.600;13.328;2023-06-14T04:17:02;101215.94;;;14.33;nan
2875;BME280;1445;52.600;13.328;2023-06-14T04:19:28;101211.25;;;14.42;nan
2875;BME280;1445;52.600;13.328;2023-06-14T04:21:53;101216.75;;;14.33;nan
2875;BME280;1445;52.600;13.328;2023-06-14T04:24:19;101215.75;;;14.52;nan
2875;BME280;1445;52.600;13.328;2023-06-14T04:26:45;101214.69;;;14.62;nan
2875;BME280;1445;52.600;13.328;2023-06-14T04:29:11;101210.31;;;14.69;nan
2875;BME280;1445;52.600;13.328;2023-06-14T04:31:40;101210.03;;;14.79;nan
2875;BME280;1445;52.600;13.328;2023-06-14T04:34:05;101208.25;;;14.75;nan
2875;BME280;1445;52.600;13.328;2023-06-14T04:36:32;101211.69;;;14.80;nan
2875;BME280;1445;52.600;13.328;2023-06-14T04:39:00;101211.69;;;14.80;nan
2875;BME280;1445;52.600;13.328;2023-06-14T04:41:28;101209.59;;;14.86;nan
2875;BME280;1445;52.600;13.328;2023-06-14T04:43:57;101209.25;;;14.88;nan
2875;BME280;1445;52.600;13.328;2023-06-14T04:46:29;101211.28;;;14.96;nan
2875;BME280;1445;52.600;13.328;2023-06-14T04:48:55;101220.59;;;15.00;nan
2875;BME280;1445;52.600;13.328;2023-06-14T04:51:21;101217.53;;;15.10;nan
2875;BME280;1445;52.600;13.328;2023-06-14T04:53:57;101230.16;;;15.16;nan
2875;BME280;1445;52.600;13.328;2023-06-14T04:56:24;101226.06;;;15.22;nan
2875;BME280;1445;52.600;13.328;2023-06-14T04:58:51;101218.09;;;15.30;nan
2875;BME280;1445;52.600;13.328;2023-06-14T05:01:22;101219.41;;;15.41;nan
2875;BME280;1445;52.600;13.328;2023-06-14T05:03:48;101230.53;;;15.41;nan
2875;BME280;1445;52.600;13.328;2023-06-14T05:06:15;101221.44;;;15.49;nan
2875;BME280;1445;52.600;13.328;2023-06-14T05:08:42;101221.91;;;15.51;nan
2875;BME280;1445;52.600;13.328;2023-06-14T05:11:07;101221.09;;;15.50;nan
2875;BME280;1445;52.600;13.328;2023-06-14T05:13:33;101220.44;;;15.54;nan
2875;BME280;1445;52.600;13.328;2023-06-14T05:15:59;101215.94;;;15.66;nan
2875;BME280;1445;52.600;13.328;2023-06-14T05:18:26;101219.31;;;15.63;nan
2875;BME280;1445;52.600;13.328;2023-06-14T05:20:51;101214.06;;;15.62;nan
2875;BME280;1445;52.600;13.328;2023-06-14T05:23:16;101222.09;;;15.63;nan
2875;BME280;1445;52.600;13.328;2023-06-14T05:25:43;101222.25;;;15.58;nan
2875;BME280;1445;52.600;13.328;2023-06-14T05:28:09;101224.88;;;15.63;nan
2875;BME280;1445;52.600;13.328;2023-06-14T05:30:34;101234.75;;;15.78;nan
2875;BME280;1445;52.600;13.328;2023-06-14T05:33:00;101233.81;;;16.09;nan
2875;BME280;1445;52.600;13.328;2023-06-14T05:35:25;101237.38;;;16.27;nan
2875;BME280;1445;52.600;13.328;2023-06-14T05:37:52;101236.34;;;16.66;nan
2875;BME280;1445;52.600;13.328;2023-06-14T05:40:19;101230.88;;;17.04;nan
2875;BME280;1445;52.600;13.328;2023-06-14T05:42:45;101228.97;;;17.26;nan
2875;BME280;1445;52.600;13.328;2023-06-14T05:45:10;101222.44;;;17.51;nan
2875;BME280;1445;52.600;13.328;2023-06-14T05:47:36;101220.81;;;17.50;nan
2875;BME280;1445;52.600;13.328;2023-06-14T05:50:01;101223.53;;;17.88;nan
2875;BME280;1445;52.600;13.328;2023-06-14T05:52:27;101222.38;;;17.89;nan
2875;BME280;1445;52.600;13.328;2023-06-14T05:54:53;101228.44;;;18.12;nan
2875;BME280;1445;52.600;13.328;2023-06-14T05:57:18;101236.78;;;18.33;nan
2875;BME280;1445;52.600;13.328;2023-06-14T05:59:44;101231.53;;;18.32;nan
2875;BME280;1445;52.600;13.328;2023-06-14T06:02:10;101238.91;;;18.36;nan
2875;BME280;1445;52.600;13.328;2023-06-14T06:04:35;101235.16;;;18.66;nan
2875;BME280;1445;52.600;13.328;2023-06-14T06:07:01;101227.44;;;18.83;nan
2875;BME280;1445;52.600;13.328;2023-06-14T06:09:26;101235.00;;;18.83;nan
2875;BME280;1445;52.600;13.328;2023-06-14T06:11:52;101238.09;;;18.69;nan
2875;BME280;1445;52.600;13.328;2023-06-14T06:14:17;101231.97;;;18.76;nan
2875;BME280;1445;52.600;13.328;2023-06-14T06:16:42;101234.44;;;18.90;nan
2875;BME280;1445;52.600;13.328;2023-06-14T06:19:08;101226.19;;;19.05;nan
2875;BME280;1445;52.600;13.328;2023-06-14T06:21:33;101233.88;;;18.96;nan
2875;BME280;1445;52.600;13.328;2023-06-14T06:23:59;101224.44;;;18.89;nan
2875;BME280;1445;52.600;13.328;2023-06-14T06:26:25;101232.09;;;18.92;nan
2875;BME280;1445;52.600;13.328;2023-06-14T06:28:51;101230.84;;;18.89;nan
2875;BME280;1445;52.600;13.328;2023-06-14T06:31:16;101233.88;;;18.96;nan
2875;BME280;1445;52.600;13.328;2023-06-14T06:33:42;101232.94;;;18.59;nan
2875;BME280;1445;52.600;13.328;2023-06-14T06:36:07;101221.31;;;18.69;nan
2875;BME280;1445;52.600;13.328;2023-06-14T06:38:32;101220.34;;;18.86;nan
2875;BME280;1445;52.600;13.328;2023-06-14T06:40:58;101221.03;;;18.83;nan
2875;BME280;1445;52.600;13.328;2023-06-14T06:43:23;101228.84;;;18.90;nan
2875;BME280;1445;52.600;13.328;2023-06-14T06:45:49;101221.28;;;18.90;nan
2875;BME280;1445;52.600;13.328;2023-06-14T06:48:14;101212.69;;;19.07;nan
2875;BME280;1445;52.600;13.328;2023-06-14T06:50:41;101224.59;;;19.17;nan
2875;BME280;1445;52.600;13.328;2023-06-14T06:53:06;101223.97;;;19.23;nan
2875;BME280;1445;52.600;13.328;2023-06-14T06:55:32;101219.69;;;19.50;nan
2875;BME280;1445;52.600;13.328;2023-06-14T06:57:57;101223.06;;;19.81;nan
2875;BME280;1445;52.600;13.328;2023-06-14T07:00:23;101230.88;;;19.87;nan
2875;BME280;1445;52.600;13.328;2023-06-14T07:02:48;101229.16;;;20.11;nan
2875;BME280;1445;52.600;13.328;2023-06-14T07:05:14;101229.50;;;20.09;nan
2875;BME280;1445;52.600;13.328;2023-06-14T07:07:40;101235.47;;;20.36;nan
2875;BME280;1445;52.600;13.328;2023-06-14T07:10:05;101233.16;;;20.66;nan
2875;BME280;1445;52.600;13.328;2023-06-14T07:12:31;101234.97;;;20.74;nan
2875;BME280;1445;52.600;13.328;2023-06-14T07:14:59;101239.69;;;21.02;nan
2875;BME280;1445;52.600;13.328;2023-06-14T07:17:25;101239.88;;;20.93;nan
2875;BME280;1445;52.600;13.328;2023-06-14T07:19:50;101252.28;;;21.08;nan
2875;BME280;1445;52.600;13.328;2023-06-14T07:22:16;101253.09;;;21.24;nan
2875;BME280;1445;52.600;13.328;2023-06-14T07:24:41;101259.97;;;21.11;nan
2875;BME280;1445;52.600;13.328;2023-06-14T07:27:07;101257.97;;;21.11;nan
2875;BME280;1445;52.600;13.328;2023-06-14T07:29:33;101252.94;;;20.73;nan
2875;BME280;1445;52.600;13.328;2023-06-14T07:31:58;101266.28;;;20.64;nan
2875;BME280;1445;52.600;13.328;2023-06-14T07:34:23;101259.94;;;20.95;nan
2875;BME280;1445;52.600;13.328;2023-06-14T07:36:49;101261.50;;;21.08;nan
2875;BME280;1445;52.600;13.328;2023-06-14T07:39:14;101264.84;;;20.98;nan
2875;BME280;1445;52.600;13.328;2023-06-14T07:41:40;101253.38;;;21.03;nan
2875;BME280;1445;52.600;13.328;2023-06-14T07:44:05;101259.63;;;21.28;nan
2875;BME280;1445;52.600;13.328;2023-06-14T07:46:31;101259.97;;;21.58;nan
2875;BME280;1445;52.600;13.328;2023-06-14T07:48:56;101248.06;;;21.81;nan
2875;BME280;1445;52.600;13.328;2023-06-14T07:51:22;101249.59;;;22.13;nan
2875;BME280;1445;52.600;13.328;2023-06-14T07:53:48;101249.13;;;22.47;nan
2875;BME280;1445;52.600;13.328;2023-06-14T07:56:14;101258.72;;;22.65;nan
2875;BME280;1445;52.600;13.328;2023-06-14T07:58:39;101263.28;;;22.73;nan
2875;BME280;1445;52.600;13.328;2023-06-14T08:01:05;101255.28;;;22.95;nan
2875;BME280;1445;52.600;13.328;2023-06-14T08:03:33;101250.84;;;22.94;nan
2875;BME280;1445;52.600;13.328;2023-06-14T08:05:58;101246.09;;;22.98;nan
2875;BME280;1445;52.600;13.328;2023-06-14T08:08:24;101241.31;;;22.79;nan
2875;BME280;1445;52.600;13.328;2023-06-14T08:10:49;101246.00;;;22.71;nan
2875;BME280;1445;52.600;13.328;2023-06-14T08:13:15;101243.19;;;22.71;nan
2875;BME280;1445;52.600;13.328;2023-06-14T08:15:41;101242.50;;;23.20;nan
2875;BME280;1445;52.600;13.328;2023-06-14T08:18:06;101240.97;;;23.26;nan
2875;BME280;1445;52.600;13.328;2023-06-14T08:20:31;101234.59;;;23.29;nan
2875;BME280;1445;52.600;13.328;2023-06-14T08:22:58;101232.28;;;23.12;nan
2875;BME280;1445;52.600;13.328;2023-06-14T08:25:23;101234.34;;;23.38;nan
2875;BME280;1445;52.600;13.328;2023-06-14T08:27:49;101236.47;;;23.45;nan
2875;BME280;1445;52.600;13.328;2023-06-14T08:30:15;101241.56;;;23.66;nan
2875;BME280;1445;52.600;13.328;2023-06-14T08:32:42;101247.44;;;23.53;nan
2875;BME280;1445;52.600;13.328;2023-06-14T08:35:08;101245.44;;;23.54;nan
2875;BME280;1445;52.600;13.328;2023-06-14T08:37:40;101233.34;;;23.76;nan
2875;BME280;1445;52.600;13.328;2023-06-14T08:40:20;101237.44;;;23.83;nan
2875;BME280;1445;52.600;13.328;2023-06-14T08:42:48;101236.69;;;23.86;nan
2875;BME280;1445;52.600;13.328;2023-06-14T08:45:15;101234.97;;;23.54;nan
2875;BME280;1445;52.600;13.328;2023-06-14T08:47:40;101231.34;;;23.27;nan
2875;BME280;1445;52.600;13.328;2023-06-14T08:50:07;101234.88;;;23.47;nan
2875;BME280;1445;52.600;13.328;2023-06-14T08:52:37;101231.00;;;23.82;nan
2875;BME280;1445;52.600;13.328;2023-06-14T08:55:09;101240.00;;;24.25;nan
2875;BME280;1445;52.600;13.328;2023-06-14T08:57:36;101232.84;;;24.31;nan
2875;BME280;1445;52.600;13.328;2023-06-14T09:00:03;101233.34;;;24.74;nan
2875;BME280;1445;52.600;13.328;2023-06-14T09:02:47;101231.59;;;24.96;nan
2875;BME280;1445;52.600;13.328;2023-06-14T09:05:13;101230.69;;;24.88;nan
2875;BME280;1445;52.600;13.328;2023-06-14T09:07:42;101224.88;;;25.11;nan
2875;BME280;1445;52.600;13.328;2023-06-14T09:10:10;101233.09;;;24.86;nan
2875;BME280;1445;52.600;13.328;2023-06-14T09:12:36;101229.19;;;24.57;nan
2875;BME280;1445;52.600;13.328;2023-06-14T09:15:05;101228.84;;;24.66;nan
2875;BME280;1445;52.600;13.328;2023-06-14T09:17:35;101225.22;;;24.65;nan
2875;BME280;1445;52.600;13.328;2023-06-14T09:20:05;101229.72;;;24.73;nan
2875;BME280;1445;52.600;13.328;2023-06-14T09:22:32;101234.84;;;25.02;nan
2875;BME280;1445;52.600;13.328;2023-06-14T09:24:57;101234.25;;;25.22;nan
2875;BME280;1445;52.600;13.328;2023-06-14T09:27:25;101224.69;;;25.34;nan
2875;BME280;1445;52.600;13.328;2023-06-14T09:29:51;101235.97;;;25.34;nan
2875;BME280;1445;52.600;13.328;2023-06-14T09:32:16;101246.09;;;25.94;nan
2875;BME280;1445;52.600;13.328;2023-06-14T09:34:42;101242.81;;;25.88;nan
2875;BME280;1445;52.600;13.328;2023-06-14T09:37:07;101240.91;;;26.07;nan
2875;BME280;1445;52.600;13.328;2023-06-14T09:39:33;101242.59;;;25.56;nan
2875;BME280;1445;52.600;13.328;2023-06-14T09:41:58;101242.97;;;26.21;nan
2875;BME280;1445;52.600;13.328;2023-06-14T09:44:25;101241.44;;;26.37;nan
2875;BME280;1445;52.600;13.328;2023-06-14T09:46:55;101226.19;;;26.67;nan
2875;BME280;1445;52.600;13.328;2023-06-14T09:49:21;101233.53;;;26.93;nan
2875;BME280;1445;52.600;13.328;2023-06-14T09:51:50;101232.34;;;27.30;nan
2875;BME280;1445;52.600;13.328;2023-06-14T09:54:22;101229.53;;;27.23;nan
2875;BME280;1445;52.600;13.328;2023-06-14T09:56:48;101236.41;;;27.36;nan
2875;BME280;1445;52.600;13.328;2023-06-14T09:59:19;101232.75;;;27.39;nan
2875;BME280;1445;52.600;13.328;2023-06-14T10:01:47;101236.00;;;27.20;nan
2875;BME280;1445;52.600;13.328;2023-06-14T10:04:14;101232.75;;;27.43;nan
2875;BME280;1445;52.600;13.328;2023-06-14T10:06:43;101246.00;;;26.78;nan
2875;BME280;1445;52.600;13.328;2023-06-14T10:09:11;101249.59;;;26.60;nan
2875;BME280;1445;52.600;13.328;2023-06-14T10:11:37;101247.47;;;26.36;nan
2875;BME280;1445;52.600;13.328;2023-06-14T10:14:09;101242.25;;;26.41;nan
2875;BME280;1445;52.600;13.328;2023-06-14T10:17:00;101239.63;;;25.97;nan
2875;BME280;1445;52.600;13.328;2023-06-14T10:19:42;101240.91;;;26.07;nan
2875;BME280;1445;52.600;13.328;2023-06-14T10:22:17;101249.25;;;25.85;nan
2875;BME280;1445;52.600;13.328;2023-06-14T10:24:45;101243.44;;;26.30;nan
2875;BME280;1445;52.600;13.328;2023-06-14T10:27:13;101238.19;;;26.39;nan
2875;BME280;1445;52.600;13.328;2023-06-14T10:30:08;101239.75;;;26.18;nan
2875;BME280;1445;52.600;13.328;2023-06-14T10:32:33;101234.25;;;26.51;nan
2875;BME280;1445;52.600;13.328;2023-06-14T10:35:01;101236.66;;;26.49;nan
2875;BME280;1445;52.600;13.328;2023-06-14T10:37:27;101225.28;;;26.41;nan
2875;BME280;1445;52.600;13.328;2023-06-14T10:39:53;101223.75;;;26.48;nan
2875;BME280;1445;52.600;13.328;2023-06-14T10:42:19;101231.13;;;27.24;nan
2875;BME280;1445;52.600;13.328;2023-06-14T10:49:58;101210.31;;;30.52;nan
2875;BME280;1445;52.600;13.328;2023-06-14T10:52:29;101214.66;;;31.37;nan
2875;BME280;1445;52.600;13.328;2023-06-14T10:55:09;101208.09;;;31.41;nan
2875;BME280;1445;52.600;13.328;2023-06-14T10:57:37;101204.00;;;31.18;nan
2875;BME280;1445;52.600;13.328;2023-06-14T11:00:05;101207.56;;;30.72;nan
2875;BME280;1445;52.600;13.328;2023-06-14T11:05:28;101195.84;;;30.66;nan
2875;BME280;1445;52.600;13.328;2023-06-14T11:08:07;101195.47;;;31.42;nan
2875;BME280;1445;52.600;13.328;2023-06-14T11:10:39;101187.47;;;31.56;nan
2875;BME280;1445;52.600;13.328;2023-06-14T11:13:06;101186.50;;;32.43;nan
2875;BME280;1445;52.600;13.328;2023-06-14T11:15:36;101187.59;;;32.29;nan
2875;BME280;1445;52.600;13.328;2023-06-14T11:18:04;101190.06;;;31.91;nan
2875;BME280;1445;52.600;13.328;2023-06-14T11:20:31;101187.63;;;30.45;nan
2875;BME280;1445;52.600;13.328;2023-06-14T11:22:58;101198.28;;;30.40;nan
2875;BME280;1445;52.600;13.328;2023-06-14T11:25:24;101188.19;;;30.90;nan
2875;BME280;1445;52.600;13.328;2023-06-14T11:27:50;101183.25;;;31.18;nan
2875;BME280;1445;52.600;13.328;2023-06-14T11:30:16;101177.78;;;31.27;nan
2875;BME280;1445;52.600;13.328;2023-06-14T11:32:42;101167.31;;;31.67;nan
2875;BME280;1445;52.600;13.328;2023-06-14T11:35:14;101167.94;;;31.55;nan
2875;BME280;1445;52.600;13.328;2023-06-14T11:37:41;101173.34;;;31.69;nan
2875;BME280;1445;52.600;13.328;2023-06-14T11:40:08;101162.13;;;32.38;nan
2875;BME280;1445;52.600;13.328;2023-06-14T11:42:35;101153.91;;;32.76;nan
2875;BME280;1445;52.600;13.328;2023-06-14T11:45:02;101166.88;;;32.97;nan
2875;BME280;1445;52.600;13.328;2023-06-14T11:47:32;101148.91;;;32.81;nan
2875;BME280;1445;52.600;13.328;2023-06-14T11:49:59;101149.28;;;32.30;nan
2875;BME280;1445;52.600;13.328;2023-06-14T11:52:25;101147.59;;;32.69;nan
2875;BME280;1445;52.600;13.328;2023-06-14T11:54:50;101149.75;;;31.49;nan
2875;BME280;1445;52.600;13.328;2023-06-14T11:57:18;101149.53;;;31.79;nan
2875;BME280;1445;52.600;13.328;2023-06-14T11:59:43;101142.47;;;31.88;nan
2875;BME280;1445;52.600;13.328;2023-06-14T12:02:10;101140.09;;;32.39;nan
2875;BME280;1445;52.600;13.328;2023-06-14T12:04:40;101138.50;;;32.38;nan
2875;BME280;1445;52.600;13.328;2023-06-14T12:07:14;101127.59;;;33.47;nan
2875;BME280;1445;52.600;13.328;2023-06-14T12:12:26;101122.97;;;33.37;nan
2875;BME280;1445;52.600;13.328;2023-06-14T12:14:53;101123.28;;;33.97;nan
2875;BME280;1445;52.600;13.328;2023-06-14T12:17:19;101124.63;;;34.22;nan
2875;BME280;1445;52.600;13.328;2023-06-14T12:19:46;101110.56;;;34.53;nan
2875;BME280;1445;52.600;13.328;2023-06-14T12:22:13;101106.00;;;36.03;nan
2875;BME280;1445;52.600;13.328;2023-06-14T12:24:39;101101.47;;;36.55;nan
2875;BME280;1445;52.600;13.328;2023-06-14T12:27:07;101097.44;;;37.30;nan
2875;BME280;1445;52.600;13.328;2023-06-14T12:29:33;101098.56;;;37.23;nan
2875;BME280;1445;52.600;13.328;2023-06-14T12:31:58;101090.56;;;37.55;nan
2875;BME280;1445;52.600;13.328;2023-06-14T12:34:24;101098.84;;;37.35;nan
2875;BME280;1445;52.600;13.328;2023-06-14T12:36:53;101089.03;;;37.87;nan
2875;BME280;1445;52.600;13.328;2023-06-14T12:39:19;101085.06;;;38.70;nan
2875;BME280;1445;52.600;13.328;2023-06-14T12:41:45;101089.41;;;38.65;nan
2875;BME280;1445;52.600;13.328;2023-06-14T12:44:13;101089.31;;;38.83;nan
2875;BME280;1445;52.600;13.328;2023-06-14T12:46:40;101096.16;;;38.62;nan
2875;BME280;1445;52.600;13.328;2023-06-14T12:49:08;101087.88;;;38.55;nan
2875;BME280;1445;52.600;13.328;2023-06-14T12:51:34;101080.41;;;38.72;nan
2875;BME280;1445;52.600;13.328;2023-06-14T12:53:59;101079.53;;;39.05;nan
2875;BME280;1445;52.600;13.328;2023-06-14T12:56:24;101084.97;;;37.33;nan
2875;BME280;1445;52.600;13.328;2023-06-14T12:58:51;101069.91;;;36.74;nan
2875;BME280;1445;52.600;13.328;2023-06-14T13:01:16;101074.44;;;37.30;nan
2875;BME280;1445;52.600;13.328;2023-06-14T13:03:42;101063.06;;;36.90;nan
2875;BME280;1445;52.600;13.328;2023-06-14T13:06:08;101066.88;;;36.28;nan
2875;BME280;1445;52.600;13.328;2023-06-14T13:08:33;101081.63;;;36.08;nan
2875;BME280;1445;52.600;13.328;2023-06-14T13:10:58;101075.97;;;36.85;nan
2875;BME280;1445;52.600;13.328;2023-06-14T13:13:24;101065.84;;;38.42;nan
2875;BME280;1445;52.600;13.328;2023-06-14T13:15:50;101060.03;;;37.48;nan
2875;BME280;1445;52.600;13.328;2023-06-14T13:18:16;101064.00;;;36.77;nan
2875;BME280;1445;52.600;13.328;2023-06-14T13:20:42;101059.78;;;38.31;nan
2875;BME280;1445;52.600;13.328;2023-06-14T13:23:08;101055.38;;;39.17;nan
2875;BME280;1445;52.600;13.328;2023-06-14T13:25:35;101049.63;;;39.71;nan
2875;BME280;1445;52.600;13.328;2023-06-14T13:28:01;101055.75;;;40.43;nan
2875;BME280;1445;52.600;13.328;2023-06-14T13:30:26;101048.88;;;39.91;nan